• Join FlightAware (Why Join?)
  • Login
  • US Flag 
11:43AM EST


 

Airport Tracker/Info


-or-


 

Live Flight TrackerFlight Track Log ✈ N723NE ✈ 27-Aug-2014 ✈ 0B8 - KDXR

Flight Track Log - Related Links

Times and Time Zones

All times are in EDT time to prevent confusion due to time zone crossing. See the N723NE flight status page for this flight to view local times or setup timezone preferences in your user account.

Time Position Orientation Groundspeed Altitude Reporting Facility
EDT Latitude Longitude Course Direction KTS MPH feet Rate Location/Type
10:29PM 41.4103 -72.1103 276° West 107 123 4,400  Level Boston Center
10:30PM 41.4075 -72.1500 265° West 107 123 4,400 60 Level Boston Center
10:31PM 41.4022 -72.1939 261° West 119 137 4,600 60 Climbing Boston Center
10:32PM 41.3986 -72.2375 264° West 119 137 4,600  Level Boston Center
10:33PM 41.2765 -72.3174 270° West  Level Estimated
10:33PM 41.4000 -72.2819 272° West 119 137 4,600  Level Boston Center
10:34PM 41.2806 -72.3650 276° West  Level Estimated
10:34PM 41.3978 -72.3294 266° West 119 137 4,600  Level Boston Center
10:35PM 41.3964 -72.3731 268° West 119 137 4,600  Level Boston Center
10:36PM 41.3961 -72.4181 270° West 119 137 4,600  Level Boston Center
10:37PM 41.3981 -72.4636 273° West 120 138 4,600  Level Boston Center
10:38PM 41.3981 -72.5100 270° West 120 138 4,600  Level Boston Center
10:39PM 41.3969 -72.5544 268° West 122 140 4,600  Level Boston Center
10:40PM 41.3981 -72.5997 272° West 124 143 4,600 -60 Level Boston Center
10:41PM 41.3967 -72.6458 268° West 124 143 4,500 -60 Descending Boston Center
10:42PM 41.3989 -72.6922 274° West 124 143 4,500  Level Boston Center
10:43PM 41.3983 -72.7406 269° West 124 143 4,500  Level Boston Center
10:44PM 41.3956 -72.7856 265° West 124 143 4,500 -60 Level Boston Center
10:45PM 41.3925 -72.8325 265° West 124 143 4,400 -300 Descending Boston Center
10:46PM 41.3933 -72.8831 271° West 134 154 3,900 -360 Descending Boston Center
10:47PM 41.3919 -72.9336 268° West 136 157 3,700 -240 Descending Boston Center
10:48PM 41.3903 -72.9875 268° West 136 157 3,500 -240 Descending Boston Center
10:49PM 41.3886 -73.0356 267° West 135 155 3,300 -180 Descending Boston Center
10:50PM 41.3833 -73.0844 262° West 135 155 3,200 -300 Descending Boston Center
10:51PM 41.3853 -73.1336 273° West 134 154 2,800 -360 Descending Boston Center
10:52PM 41.3878 -73.1839 274° West 134 154 2,500 -360 Descending Boston Center
10:53PM 41.3858 -73.2317 267° West 134 154 2,100 -360 Descending Boston Center
10:54PM 41.3831 -73.2756 265° West 128 147 1,800 -300 Descending Boston Center
10:55PM 41.3914 -73.3156 286° West 121 139 1,600 -180 Descending Boston Center
10:56PM 41.4017 -73.3508 291° West 112 129 1,500 -120 Descending Boston Center
10:57PM 41.3994 -73.3878 265° West 105 121 1,400 -60 Descending Boston Center
10:58PM 41.3900 -73.4222 250° West 104 120 1,400 -120 Level Boston Center
10:59PM 41.3828 -73.4542 253° West 98 113 1,200 -240 Descending Boston Center
11:00PM 41.3703 -73.4819 239° Southwest 97 112 1,000 -240 Descending Boston Center